Time;durP1;ratioP1;P1;durP2;ratioP2;P2;SDS_P1;SDS_P2;PMS_P1;PMS_P2;Temp;Humidity;BMP_temperature;BMP_pressure;BME280_temperature;BME280_humidity;BME280_pressure;Samples;Min_cycle;Max_cycle;Signal;HPM_P1;HPM_P2
2022/12/01 00:00:44;;;;;;;109.30;44.42;;;5.90;99.90;;;;;;5066916;28;20047;-60
2022/12/01 00:03:10;;;;;;;112.70;44.45;;;5.80;99.90;;;;;;5066670;28;20044;-61
2022/12/01 00:05:35;;;;;;;116.82;46.85;;;5.80;99.90;;;;;;5067156;28;20051;-60
2022/12/01 00:08:03;;;;;;;106.80;45.40;;;5.80;99.90;;;;;;5067688;28;20127;-60
2022/12/01 00:10:29;;;;;;;115.63;47.53;;;5.80;99.90;;;;;;5073673;28;20052;-62
2022/12/01 00:12:57;;;;;;;104.25;46.45;;;5.80;99.90;;;;;;5065772;28;20048;-60
2022/12/01 00:15:26;;;;;;;105.40;45.13;;;5.80;99.90;;;;;;5069315;28;20813;-61
2022/12/01 00:17:52;;;;;;;114.43;46.45;;;5.80;99.90;;;;;;5069123;28;20063;-62
2022/12/01 00:20:18;;;;;;;107.63;45.67;;;5.80;99.90;;;;;;5072589;28;20044;-61
2022/12/01 00:22:45;;;;;;;112.68;45.83;;;5.70;99.90;;;;;;5042343;28;20056;-60
2022/12/01 00:25:13;;;;;;;111.13;46.35;;;5.70;99.90;;;;;;5049778;28;20131;-61
2022/12/01 00:27:39;;;;;;;105.85;45.85;;;5.80;99.90;;;;;;5060557;28;20047;-60
2022/12/01 00:30:09;;;;;;;110.90;46.22;;;5.80;99.90;;;;;;5053039;28;20040;-62
2022/12/01 00:32:35;;;;;;;113.40;46.90;;;5.80;99.90;;;;;;5078694;28;20055;-60
2022/12/01 00:35:01;;;;;;;107.97;46.10;;;5.80;99.90;;;;;;5076392;28;20040;-62
2022/12/01 00:37:29;;;;;;;107.05;45.92;;;5.80;99.90;;;;;;5061461;28;20048;-61
2022/12/01 00:39:56;;;;;;;110.35;46.17;;;5.70;99.90;;;;;;5071454;28;20048;-60
2022/12/01 00:42:22;;;;;;;99.80;44.60;;;5.70;99.90;;;;;;5068265;28;20557;-59
2022/12/01 00:44:48;;;;;;;111.97;45.05;;;5.80;99.90;;;;;;5063162;28;20048;-60
2022/12/01 00:47:14;;;;;;;115.88;46.88;;;5.70;99.90;;;;;;5052738;28;20518;-60
2022/12/01 00:49:40;;;;;;;101.88;44.70;;;5.70;99.90;;;;;;5068463;28;20101;-61
2022/12/01 00:52:06;;;;;;;118.93;47.50;;;5.70;99.90;;;;;;5070298;28;20044;-61
2022/12/01 00:54:32;;;;;;;109.60;45.75;;;5.80;99.90;;;;;;5062252;28;20064;-61
2022/12/01 00:56:59;;;;;;;111.90;46.50;;;5.70;99.90;;;;;;5062504;28;20386;-61
2022/12/01 00:59:25;;;;;;;114.63;48.45;;;5.70;99.90;;;;;;5057124;28;20053;-61
2022/12/01 01:01:51;;;;;;;114.63;46.42;;;5.70;99.90;;;;;;5071806;28;20040;-61
2022/12/01 01:04:17;;;;;;;112.47;46.55;;;5.70;99.90;;;;;;5062081;28;20106;-60
2022/12/01 01:06:43;;;;;;;117.40;48.30;;;5.80;99.90;;;;;;5051516;28;20083;-60
2022/12/01 01:09:10;;;;;;;116.05;47.75;;;5.70;99.90;;;;;;5045477;28;20539;-60
2022/12/01 01:11:36;;;;;;;120.00;47.33;;;5.70;99.90;;;;;;5061333;28;20052;-62
2022/12/01 01:14:03;;;;;;;116.20;47.60;;;5.70;99.90;;;;;;5072664;28;20047;-62
2022/12/01 01:16:29;;;;;;;114.18;47.15;;;5.70;99.90;;;;;;5066964;28;20369;-60
2022/12/01 01:18:56;;;;;;;121.15;47.45;;;5.80;99.90;;;;;;5070278;28;20048;-61
2022/12/01 01:21:23;;;;;;;112.35;47.42;;;5.70;99.90;;;;;;5061231;28;20139;-60
2022/12/01 01:23:50;;;;;;;110.72;46.65;;;5.80;99.90;;;;;;5052715;28;20118;-61
2022/12/01 01:26:24;;;;;;;113.72;47.75;;;5.70;99.90;;;;;;5048623;28;20048;-61
2022/12/01 01:28:51;;;;;;;108.18;46.20;;;5.70;99.90;;;;;;5066164;28;20048;-61
2022/12/01 01:31:20;;;;;;;111.28;48.10;;;5.70;99.90;;;;;;5069727;28;20044;-61
2022/12/01 01:33:46;;;;;;;109.28;47.65;;;5.70;99.90;;;;;;5072932;28;20101;-62
2022/12/01 01:36:13;;;;;;;119.72;48.28;;;5.70;99.90;;;;;;5051543;28;20402;-61
2022/12/01 01:38:39;;;;;;;112.95;46.45;;;5.70;99.90;;;;;;5061569;28;20898;-61
2022/12/01 01:41:06;;;;;;;111.60;46.63;;;5.70;99.90;;;;;;5055971;28;20048;-62
2022/12/01 01:43:47;;;;;;;114.22;46.75;;;5.70;99.90;;;;;;5069023;28;20048;-60
2022/12/01 01:46:28;;;;;;;109.72;47.30;;;5.70;99.90;;;;;;5071387;28;20087;-60
2022/12/01 01:49:07;;;;;;;111.38;47.20;;;5.70;99.90;;;;;;5065083;28;20782;-61
2022/12/01 01:51:56;;;;;;;111.00;47.50;;;5.70;99.90;;;;;;5069731;28;20048;-61
2022/12/01 01:54:31;;;;;;;109.85;46.17;;;5.70;99.90;;;;;;5053093;28;20052;-60
2022/12/01 01:56:59;;;;;;;112.22;47.05;;;5.70;99.90;;;;;;5084333;28;20121;-61
2022/12/01 01:59:28;;;;;;;110.28;47.95;;;5.70;99.90;;;;;;5066882;28;20048;-61
2022/12/01 02:02:07;;;;;;;108.28;46.10;;;5.70;99.90;;;;;;5069185;28;20036;-62
2022/12/01 02:04:39;;;;;;;103.97;45.70;;;5.70;99.90;;;;;;5080484;28;20132;-61
2022/12/01 02:07:07;;;;;;;114.97;47.92;;;5.70;99.90;;;;;;5071224;28;20051;-60
2022/12/01 02:09:34;;;;;;;108.68;46.47;;;5.70;99.90;;;;;;5063406;28;20041;-60
2022/12/01 02:12:30;;;;;;;118.25;47.70;;;5.70;99.90;;;;;;5064301;28;20094;-60
2022/12/01 02:15:23;;;;;;;120.13;49.35;;;5.70;99.90;;;;;;5055854;28;20040;-60
2022/12/01 02:18:05;;;;;;;106.47;47.42;;;5.70;99.90;;;;;;5064991;28;20056;-61
2022/12/01 02:20:58;;;;;;;116.82;47.20;;;5.70;99.90;;;;;;5053419;28;20522;-60
2022/12/01 02:23:55;;;;;;;112.20;46.95;;;5.70;99.90;;;;;;5064455;28;20049;-61
2022/12/01 02:26:42;;;;;;;104.18;44.78;;;5.70;99.90;;;;;;5053598;28;20059;-60
2022/12/01 02:29:26;;;;;;;124.55;48.60;;;5.70;99.90;;;;;;5062264;28;20550;-60
2022/12/01 02:32:12;;;;;;;116.93;48.10;;;5.70;99.90;;;;;;5071850;28;20094;-62
2022/12/01 02:34:59;;;;;;;113.00;48.35;;;5.70;99.90;;;;;;5068977;28;20129;-60
2022/12/01 02:37:25;;;;;;;108.45;48.45;;;5.70;99.90;;;;;;5067638;28;20486;-61
2022/12/01 02:39:54;;;;;;;113.68;49.22;;;5.70;99.90;;;;;;5064758;28;20126;-60
2022/12/01 02:42:48;;;;;;;115.07;47.53;;;5.60;99.90;;;;;;5072026;28;20518;-62
2022/12/01 02:45:24;;;;;;;119.75;48.80;;;5.70;99.90;;;;;;5069547;28;20045;-62
2022/12/01 02:47:53;;;;;;;109.80;47.35;;;5.70;99.90;;;;;;5068628;28;20125;-61
2022/12/01 02:50:22;;;;;;;111.82;46.50;;;5.70;99.90;;;;;;5077798;28;20051;-60
2022/12/01 02:52:48;;;;;;;110.18;47.33;;;5.70;99.90;;;;;;5064637;28;20094;-61
2022/12/01 02:55:14;;;;;;;120.53;49.25;;;5.70;99.90;;;;;;5063788;28;20052;-61
2022/12/01 02:57:40;;;;;;;115.28;47.65;;;5.60;99.90;;;;;;5067806;28;20774;-60
2022/12/01 03:00:06;;;;;;;121.45;49.42;;;5.70;99.90;;;;;;5071095;28;20096;-61
2022/12/01 03:02:48;;;;;;;115.22;48.08;;;5.60;99.90;;;;;;5071712;28;20486;-61
2022/12/01 03:05:22;;;;;;;123.10;49.67;;;5.60;99.90;;;;;;5068096;28;20423;-61
2022/12/01 03:08:25;;;;;;;115.60;50.55;;;5.60;99.90;;;;;;5067810;28;20040;-61
2022/12/01 03:10:54;;;;;;;117.72;48.55;;;5.70;99.90;;;;;;5068610;28;20052;-61
2022/12/01 03:13:32;;;;;;;123.68;51.53;;;5.70;99.90;;;;;;5072037;28;20439;-59
2022/12/01 03:16:06;;;;;;;114.05;48.00;;;5.60;99.90;;;;;;5071958;28;20475;-61
2022/12/01 03:18:49;;;;;;;118.63;49.58;;;5.70;99.90;;;;;;5084669;28;20134;-61
2022/12/01 03:21:36;;;;;;;121.25;51.92;;;5.60;99.90;;;;;;5064943;28;20193;-62
2022/12/01 03:24:19;;;;;;;118.50;50.78;;;5.70;99.90;;;;;;5053297;28;20109;-60
2022/12/01 03:26:50;;;;;;;118.65;48.40;;;5.70;99.90;;;;;;5070910;28;21065;-60
2022/12/01 03:29:42;;;;;;;118.10;49.05;;;5.70;99.90;;;;;;5068278;28;20083;-60
2022/12/01 03:32:31;;;;;;;115.50;48.10;;;5.60;99.90;;;;;;5046446;28;20052;-61
2022/12/01 03:35:05;;;;;;;110.13;48.13;;;5.70;99.90;;;;;;5063444;28;20047;-62
2022/12/01 03:37:37;;;;;;;121.07;47.78;;;5.70;99.90;;;;;;5065124;28;20048;-61
2022/12/01 03:40:10;;;;;;;123.05;48.65;;;5.70;99.90;;;;;;5065729;28;20039;-61
2022/12/01 03:42:40;;;;;;;110.78;48.45;;;5.60;99.90;;;;;;5045548;28;22342;-62
2022/12/01 03:45:13;;;;;;;118.57;48.05;;;5.60;99.90;;;;;;5064244;28;20090;-61
2022/12/01 03:47:39;;;;;;;120.57;49.45;;;5.70;99.90;;;;;;5069283;28;20059;-61
2022/12/01 03:50:09;;;;;;;120.88;49.20;;;5.60;99.90;;;;;;5036452;28;20047;-61
2022/12/01 03:53:04;;;;;;;117.00;48.40;;;5.60;99.90;;;;;;5044414;28;20056;-60
2022/12/01 03:55:33;;;;;;;114.97;48.47;;;5.60;99.90;;;;;;5049664;28;20786;-60
2022/12/01 03:58:05;;;;;;;122.18;48.72;;;5.70;99.90;;;;;;5075059;28;20043;-61
2022/12/01 04:00:32;;;;;;;112.47;48.28;;;5.60;99.90;;;;;;5060185;28;20060;-61
2022/12/01 04:03:00;;;;;;;113.75;49.03;;;5.70;99.90;;;;;;5068019;28;20044;-61
2022/12/01 04:05:26;;;;;;;120.15;49.25;;;5.60;99.90;;;;;;5065405;28;20109;-61
2022/12/01 04:07:52;;;;;;;116.75;50.88;;;5.60;99.90;;;;;;5063465;28;20087;-61
2022/12/01 04:10:18;;;;;;;115.50;49.30;;;5.70;99.90;;;;;;5065038;28;20127;-60
2022/12/01 04:12:44;;;;;;;114.95;48.00;;;5.70;99.90;;;;;;5066279;28;20047;-60
2022/12/01 04:15:13;;;;;;;116.55;48.33;;;5.70;99.90;;;;;;5051538;28;20097;-60
2022/12/01 04:17:43;;;;;;;116.22;48.20;;;5.60;99.90;;;;;;5069141;28;20048;-62
2022/12/01 04:20:11;;;;;;;116.28;47.58;;;5.60;99.90;;;;;;5054868;28;20055;-59
2022/12/01 04:22:37;;;;;;;116.25;47.55;;;5.60;99.90;;;;;;5069706;28;20061;-60
2022/12/01 04:25:05;;;;;;;111.32;47.40;;;5.70;99.90;;;;;;5064740;28;20043;-61
2022/12/01 04:27:31;;;;;;;117.47;47.10;;;5.70;99.90;;;;;;5075015;28;20060;-60
2022/12/01 04:29:57;;;;;;;107.15;47.40;;;5.70;99.90;;;;;;5063015;28;20150;-61
2022/12/01 04:32:23;;;;;;;103.88;44.50;;;5.70;99.90;;;;;;5067890;28;20490;-60
2022/12/01 04:34:49;;;;;;;106.53;49.13;;;5.70;99.90;;;;;;5066982;28;20044;-60
2022/12/01 04:37:16;;;;;;;107.25;46.85;;;5.70;99.90;;;;;;5066176;28;22024;-61
2022/12/01 04:39:42;;;;;;;110.20;46.60;;;5.70;99.90;;;;;;5061917;28;20048;-61
2022/12/01 04:42:08;;;;;;;113.35;48.42;;;5.70;99.90;;;;;;5065404;28;20624;-61
2022/12/01 04:44:34;;;;;;;101.05;44.45;;;5.60;99.90;;;;;;5064743;28;20047;-60
2022/12/01 04:47:00;;;;;;;107.85;45.63;;;5.60;99.90;;;;;;5068903;28;20047;-60
2022/12/01 04:49:26;;;;;;;108.55;46.55;;;5.70;99.90;;;;;;5067197;28;20048;-62
2022/12/01 04:51:52;;;;;;;107.43;45.88;;;5.70;99.90;;;;;;5063365;28;20051;-61
2022/12/01 04:54:18;;;;;;;110.32;45.00;;;5.70;99.90;;;;;;5068779;28;20082;-60
2022/12/01 04:56:43;;;;;;;99.97;45.03;;;5.70;99.90;;;;;;5070274;28;20036;-60
2022/12/01 04:59:10;;;;;;;98.72;44.40;;;5.60;99.90;;;;;;5060915;28;20443;-61
2022/12/01 05:01:35;;;;;;;99.60;43.33;;;5.60;99.90;;;;;;5065313;28;20052;-61
2022/12/01 05:04:01;;;;;;;94.50;43.72;;;5.60;99.90;;;;;;5060173;28;20517;-61
2022/12/01 05:06:28;;;;;;;96.88;42.95;;;5.60;99.90;;;;;;5062743;28;23999;-61
2022/12/01 05:08:56;;;;;;;92.03;42.03;;;5.50;99.90;;;;;;5060997;28;20078;-61
2022/12/01 05:11:23;;;;;;;97.72;41.95;;;5.50;99.90;;;;;;5063733;28;20078;-61
2022/12/01 05:13:49;;;;;;;98.65;42.22;;;5.50;99.90;;;;;;5044097;28;20219;-61
2022/12/01 05:16:21;;;;;;;84.15;39.13;;;5.40;99.90;;;;;;5064050;28;20160;-62
2022/12/01 05:18:49;;;;;;;80.00;38.22;;;5.40;99.90;;;;;;5059047;28;20059;-61
2022/12/01 05:21:15;;;;;;;75.32;36.30;;;5.30;99.90;;;;;;5065947;28;20469;-62
2022/12/01 05:23:41;;;;;;;80.75;37.47;;;5.30;99.90;;;;;;5043724;28;20040;-61
2022/12/01 05:26:08;;;;;;;83.20;39.03;;;5.20;99.90;;;;;;5049024;28;20083;-61
2022/12/01 05:28:34;;;;;;;81.00;37.10;;;5.20;99.90;;;;;;5063108;28;20047;-62
2022/12/01 05:31:00;;;;;;;78.53;36.58;;;5.20;99.90;;;;;;5061970;28;20048;-61
2022/12/01 05:33:27;;;;;;;76.75;35.05;;;5.00;99.90;;;;;;5068354;28;20105;-61
2022/12/01 05:35:53;;;;;;;78.03;34.63;;;5.00;99.90;;;;;;5072271;28;22775;-61
2022/12/01 05:38:19;;;;;;;71.10;33.85;;;4.90;99.90;;;;;;5066828;28;20056;-61
2022/12/01 05:40:50;;;;;;;69.57;34.15;;;4.90;99.90;;;;;;5061416;28;20555;-60
2022/12/01 05:43:17;;;;;;;71.80;34.22;;;4.80;99.90;;;;;;5065739;28;20055;-63
2022/12/01 05:45:43;;;;;;;73.90;33.90;;;4.80;99.90;;;;;;5048474;28;20510;-63
2022/12/01 05:48:08;;;;;;;72.85;34.72;;;4.80;99.90;;;;;;5083149;28;20048;-64
2022/12/01 05:50:38;;;;;;;71.63;33.20;;;4.70;99.90;;;;;;5045050;28;20041;-64
2022/12/01 05:53:04;;;;;;;71.60;34.13;;;4.60;99.90;;;;;;5065467;28;20043;-63
2022/12/01 05:55:34;;;;;;;81.93;36.72;;;4.60;99.90;;;;;;5069767;28;20036;-63
2022/12/01 05:58:00;;;;;;;82.90;36.42;;;4.60;99.90;;;;;;5066991;28;20040;-64
2022/12/01 06:00:27;;;;;;;79.50;36.08;;;4.50;99.90;;;;;;5052716;28;20051;-63
2022/12/01 06:02:53;;;;;;;73.10;33.25;;;4.50;99.90;;;;;;5063654;28;20127;-64
2022/12/01 06:05:18;;;;;;;67.28;32.53;;;4.40;99.90;;;;;;5062427;28;20058;-63
2022/12/01 06:07:44;;;;;;;69.22;30.90;;;4.40;99.90;;;;;;5062148;28;20059;-63
2022/12/01 06:10:11;;;;;;;152.43;37.05;;;4.30;99.90;;;;;;5063626;28;20094;-64
2022/12/01 06:12:37;;;;;;;194.63;28.58;;;4.30;99.90;;;;;;5067528;28;20575;-64
2022/12/01 06:15:04;;;;;;;202.80;23.48;;;4.30;99.90;;;;;;5066654;28;20097;-63
2022/12/01 06:17:30;;;;;;;54.72;20.95;;;4.20;99.90;;;;;;5072624;28;20522;-63
2022/12/01 06:19:56;;;;;;;36.17;17.35;;;4.10;99.90;;;;;;5069335;28;20044;-63
2022/12/01 06:22:22;;;;;;;36.10;19.45;;;4.00;99.90;;;;;;5064291;28;20079;-64
2022/12/01 06:24:48;;;;;;;53.72;21.90;;;4.00;99.90;;;;;;5063401;28;20048;-63
2022/12/01 06:27:14;;;;;;;45.28;21.70;;;3.90;99.90;;;;;;5065006;28;20051;-64
2022/12/01 06:29:39;;;;;;;38.70;20.60;;;3.90;99.90;;;;;;5059797;28;20043;-63
2022/12/01 06:32:05;;;;;;;40.17;20.10;;;3.80;99.90;;;;;;5068619;28;20090;-63
2022/12/01 06:34:31;;;;;;;37.08;21.00;;;3.80;99.90;;;;;;5051557;28;20390;-63
2022/12/01 06:36:57;;;;;;;41.38;20.75;;;3.80;99.90;;;;;;5070468;28;20117;-63
2022/12/01 06:39:23;;;;;;;35.60;19.05;;;3.70;99.90;;;;;;5066348;28;20640;-63
2022/12/01 06:41:48;;;;;;;32.22;18.13;;;3.70;99.90;;;;;;5052120;28;20098;-63
2022/12/01 06:44:14;;;;;;;28.27;17.55;;;3.60;99.90;;;;;;5070962;28;20048;-63
2022/12/01 06:46:40;;;;;;;37.20;17.75;;;3.60;99.90;;;;;;5069492;28;20044;-63
2022/12/01 06:49:09;;;;;;;39.63;16.15;;;3.50;99.90;;;;;;5052482;28;20084;-63
2022/12/01 06:51:35;;;;;;;28.55;14.68;;;3.50;99.90;;;;;;5065446;28;20042;-64
2022/12/01 06:54:01;;;;;;;23.85;15.50;;;3.40;99.90;;;;;;5077536;28;20483;-63
2022/12/01 06:56:26;;;;;;;23.25;14.80;;;3.30;99.90;;;;;;5075291;28;20043;-64
2022/12/01 06:58:52;;;;;;;23.10;15.35;;;3.20;99.90;;;;;;5069886;28;20052;-63
2022/12/01 07:01:18;;;;;;;23.15;14.45;;;3.20;99.90;;;;;;5067138;28;20036;-63
2022/12/01 07:03:50;;;;;;;26.00;15.82;;;3.20;99.90;;;;;;5071536;28;20051;-64
2022/12/01 07:06:17;;;;;;;23.55;15.27;;;3.20;99.90;;;;;;5049688;28;20048;-63
2022/12/01 07:08:43;;;;;;;24.80;14.23;;;3.20;99.90;;;;;;5015515;28;20060;-63
2022/12/01 07:11:12;;;;;;;26.42;14.52;;;3.10;99.90;;;;;;5059661;28;20036;-61
2022/12/01 07:13:38;;;;;;;25.02;15.13;;;3.00;99.90;;;;;;5068116;28;20058;-61
2022/12/01 07:16:06;;;;;;;24.38;14.23;;;3.00;99.90;;;;;;5071309;28;20048;-61
2022/12/01 07:18:32;;;;;;;25.70;14.73;;;3.00;99.90;;;;;;5050813;28;21707;-62
2022/12/01 07:21:12;;;;;;;22.80;13.63;;;2.90;99.90;;;;;;5071254;28;20514;-52
2022/12/01 07:23:38;;;;;;;25.40;14.07;;;2.90;99.90;;;;;;5070127;28;20416;-53
2022/12/01 07:26:10;;;;;;;25.02;13.95;;;2.90;99.90;;;;;;5067495;28;20055;-52
2022/12/01 07:28:36;;;;;;;19.77;12.88;;;2.80;99.90;;;;;;5074688;28;20051;-53
2022/12/01 07:31:06;;;;;;;20.92;13.07;;;2.90;99.90;;;;;;5070760;28;20044;-53
2022/12/01 07:33:32;;;;;;;19.63;11.48;;;2.80;99.90;;;;;;5075550;28;20092;-54
2022/12/01 07:35:58;;;;;;;21.17;12.15;;;2.80;99.90;;;;;;5068906;28;20044;-52
2022/12/01 07:38:26;;;;;;;17.85;11.00;;;2.80;99.90;;;;;;5072936;28;20047;-54
2022/12/01 07:40:52;;;;;;;13.50;8.82;;;2.80;99.90;;;;;;5086589;27;20076;-57
2022/12/01 07:43:18;;;;;;;15.55;9.25;;;2.70;99.90;;;;;;5075155;28;20086;-53
2022/12/01 07:45:43;;;;;;;12.25;8.30;;;2.70;99.90;;;;;;5082573;28;20055;-53
2022/12/01 07:48:09;;;;;;;16.25;9.70;;;2.70;99.90;;;;;;5073430;28;20067;-53
2022/12/01 07:50:35;;;;;;;16.10;9.48;;;2.70;99.90;;;;;;5072773;28;20044;-53
2022/12/01 07:53:01;;;;;;;20.55;11.00;;;2.60;99.90;;;;;;5071363;28;20074;-51
2022/12/01 07:55:26;;;;;;;23.77;13.55;;;2.60;99.90;;;;;;5066573;28;20044;-53
2022/12/01 07:57:52;;;;;;;23.77;12.88;;;2.60;99.90;;;;;;5069984;28;20693;-54
2022/12/01 08:00:18;;;;;;;23.45;13.88;;;2.60;99.90;;;;;;5069467;28;20063;-53
2022/12/01 08:02:47;;;;;;;28.35;14.25;;;2.50;99.90;;;;;;5069663;28;20053;-51
2022/12/01 08:05:13;;;;;;;23.27;13.68;;;2.50;99.90;;;;;;5070988;28;20055;-52
2022/12/01 08:07:39;;;;;;;19.67;12.32;;;2.50;99.90;;;;;;5065804;28;20084;-53
2022/12/01 08:10:05;;;;;;;25.35;12.90;;;2.50;99.90;;;;;;5062620;28;20045;-53
2022/12/01 08:12:31;;;;;;;22.13;12.90;;;2.50;99.90;;;;;;5044040;28;20047;-53
2022/12/01 08:14:56;;;;;;;23.80;13.55;;;2.50;99.90;;;;;;5068950;28;20048;-53
2022/12/01 08:17:22;;;;;;;19.90;11.65;;;2.50;99.90;;;;;;5073995;28;20048;-52
2022/12/01 08:19:48;;;;;;;19.83;11.73;;;2.50;99.90;;;;;;5070892;28;20036;-54
2022/12/01 08:22:14;;;;;;;20.17;11.75;;;2.50;99.90;;;;;;5069319;28;20059;-51
2022/12/01 08:24:39;;;;;;;21.90;11.90;;;2.50;99.90;;;;;;5070805;28;20101;-52
2022/12/01 08:27:05;;;;;;;17.50;11.38;;;2.50;99.90;;;;;;5072125;28;20470;-53
2022/12/01 08:29:31;;;;;;;19.08;11.85;;;2.50;99.90;;;;;;5071822;28;20088;-52
2022/12/01 08:31:58;;;;;;;21.52;12.15;;;2.50;99.90;;;;;;5072054;28;20505;-53
2022/12/01 08:34:23;;;;;;;26.08;13.25;;;2.50;99.90;;;;;;5071704;28;20064;-54
2022/12/01 08:36:49;;;;;;;26.98;14.35;;;2.50;99.90;;;;;;5069463;28;20457;-53
2022/12/01 08:39:15;;;;;;;23.25;14.60;;;2.50;99.90;;;;;;5067944;28;20564;-53
2022/12/01 08:41:41;;;;;;;23.33;13.82;;;2.50;99.90;;;;;;5069611;28;20048;-53
2022/12/01 08:44:09;;;;;;;24.77;13.75;;;2.50;99.90;;;;;;5071701;28;20047;-54
2022/12/01 08:46:35;;;;;;;23.85;13.80;;;2.50;99.90;;;;;;5072559;28;20051;-53
2022/12/01 08:49:04;;;;;;;24.13;14.25;;;2.60;99.90;;;;;;5072568;28;20063;-51
2022/12/01 08:51:30;;;;;;;26.60;14.18;;;2.60;99.90;;;;;;5069142;28;20032;-53
2022/12/01 08:53:57;;;;;;;23.08;13.38;;;2.60;99.90;;;;;;5070382;28;20041;-53
2022/12/01 08:56:25;;;;;;;26.70;14.45;;;2.60;99.90;;;;;;5072832;28;20051;-53
2022/12/01 08:58:52;;;;;;;29.23;15.98;;;2.60;99.90;;;;;;5062494;28;20048;-53
2022/12/01 09:01:18;;;;;;;27.67;15.23;;;2.60;99.90;;;;;;5065182;28;20153;-54
2022/12/01 09:03:44;;;;;;;31.48;17.10;;;2.70;99.90;;;;;;5066451;28;20055;-52
2022/12/01 09:06:21;;;;;;;28.42;15.25;;;2.80;99.90;;;;;;5050205;28;20051;-54
2022/12/01 09:08:47;;;;;;;31.45;17.52;;;2.80;99.90;;;;;;5069695;28;20057;-53
2022/12/01 09:11:18;;;;;;;29.85;17.13;;;2.80;99.90;;;;;;5062355;28;20051;-53
2022/12/01 09:13:45;;;;;;;30.35;16.95;;;2.90;99.90;;;;;;5070411;28;20047;-54
2022/12/01 09:16:13;;;;;;;35.75;17.77;;;2.90;99.90;;;;;;5072123;28;20045;-51
2022/12/01 09:18:39;;;;;;;27.77;16.83;;;3.00;99.90;;;;;;5068125;28;20755;-54
2022/12/01 09:21:16;;;;;;;31.20;17.63;;;3.00;99.90;;;;;;5073143;28;20056;-53
2022/12/01 09:23:42;;;;;;;32.80;16.85;;;3.10;99.90;;;;;;5066842;28;20052;-50
2022/12/01 09:26:08;;;;;;;29.83;16.90;;;3.20;99.90;;;;;;5065650;28;20050;-53
2022/12/01 09:28:35;;;;;;;30.42;16.95;;;3.30;99.90;;;;;;5065195;28;20395;-53
2022/12/01 09:31:10;;;;;;;29.23;18.00;;;3.30;99.90;;;;;;5071262;28;20048;-53
2022/12/01 09:33:36;;;;;;;37.53;18.88;;;3.40;99.90;;;;;;5069942;28;20055;-53
2022/12/01 09:36:04;;;;;;;33.30;17.88;;;3.40;99.90;;;;;;5066658;28;20040;-52
2022/12/01 09:38:32;;;;;;;29.63;17.33;;;3.60;99.90;;;;;;5065223;28;20420;-51
2022/12/01 09:41:07;;;;;;;30.55;17.65;;;3.60;99.90;;;;;;5069633;28;20044;-53
2022/12/01 09:43:40;;;;;;;32.95;17.30;;;3.70;99.90;;;;;;5071296;28;20040;-51
2022/12/01 09:46:11;;;;;;;32.40;17.85;;;3.80;99.90;;;;;;5070043;28;20131;-52
2022/12/01 09:48:42;;;;;;;34.13;17.10;;;4.00;99.90;;;;;;5068005;28;20062;-54
2022/12/01 09:51:22;;;;;;;32.55;18.42;;;4.10;99.90;;;;;;5069010;28;20075;-53
2022/12/01 09:53:51;;;;;;;26.63;16.33;;;4.10;99.90;;;;;;5064932;28;20059;-51
2022/12/01 09:56:37;;;;;;;28.95;17.77;;;4.20;99.90;;;;;;5073937;28;20041;-53
2022/12/01 09:59:06;;;;;;;31.27;18.08;;;4.40;99.90;;;;;;5069173;28;20544;-52
2022/12/01 10:01:41;;;;;;;32.38;19.35;;;4.50;99.90;;;;;;5068301;28;20036;-54
2022/12/01 10:04:14;;;;;;;35.00;18.42;;;4.70;99.90;;;;;;5067571;28;20090;-53
2022/12/01 10:06:54;;;;;;;32.90;19.73;;;4.80;99.90;;;;;;5066486;28;20573;-53
2022/12/01 10:09:38;;;;;;;35.30;18.73;;;5.00;99.90;;;;;;5058367;28;20495;-53
2022/12/01 10:12:16;;;;;;;31.17;18.48;;;5.10;99.90;;;;;;5068840;28;20032;-53
2022/12/01 10:14:45;;;;;;;36.67;19.20;;;5.30;99.90;;;;;;5068966;28;20702;-55
2022/12/01 10:17:45;;;;;;;35.95;19.70;;;5.50;99.90;;;;;;5067131;28;20513;-53
2022/12/01 10:20:13;;;;;;;30.88;18.95;;;5.70;99.90;;;;;;5069290;28;20069;-53
2022/12/01 10:22:42;;;;;;;33.90;19.67;;;5.80;99.90;;;;;;5068306;28;20086;-53
2022/12/01 10:25:27;;;;;;;31.02;18.38;;;5.90;99.90;;;;;;5068862;28;20044;-54
2022/12/01 10:28:02;;;;;;;35.78;19.58;;;6.10;99.90;;;;;;5069827;28;20466;-52
2022/12/01 10:30:27;;;;;;;37.90;19.73;;;6.30;99.90;;;;;;5069398;28;20523;-53
2022/12/01 10:33:05;;;;;;;32.85;19.70;;;6.30;99.90;;;;;;5066668;28;20044;-53
2022/12/01 10:35:37;;;;;;;37.75;20.38;;;6.50;99.90;;;;;;5067695;28;20094;-54
2022/12/01 10:38:12;;;;;;;40.08;21.73;;;6.60;99.90;;;;;;5071078;28;20080;-53
2022/12/01 10:40:39;;;;;;;35.13;20.25;;;6.70;99.90;;;;;;5069766;28;20477;-54
2022/12/01 10:43:08;;;;;;;38.40;21.15;;;6.80;99.90;;;;;;5071675;28;20048;-54
2022/12/01 10:45:39;;;;;;;43.17;22.45;;;6.90;99.90;;;;;;5067226;28;20474;-54
2022/12/01 10:48:13;;;;;;;35.75;20.25;;;6.90;99.90;;;;;;5071759;28;20062;-54
2022/12/01 10:50:41;;;;;;;35.35;21.60;;;6.90;99.90;;;;;;5068562;28;20055;-53
2022/12/01 10:53:28;;;;;;;39.10;22.58;;;7.00;99.90;;;;;;5070023;28;20405;-54
2022/12/01 10:56:18;;;;;;;45.85;23.88;;;7.10;99.90;;;;;;5071036;28;20477;-53
2022/12/01 10:58:57;;;;;;;46.35;24.23;;;7.30;99.90;;;;;;5072405;28;20128;-51
2022/12/01 11:01:26;;;;;;;42.10;24.20;;;7.30;99.90;;;;;;5074878;28;20046;-51
2022/12/01 11:04:16;;;;;;;46.58;25.08;;;7.40;99.90;;;;;;5071086;28;20053;-53
2022/12/01 11:06:48;;;;;;;49.03;26.50;;;7.40;99.90;;;;;;5070072;28;20048;-54
2022/12/01 11:09:19;;;;;;;;;;;7.40;99.90;;;;;;5069513;28;20087;-54
2022/12/01 11:11:45;;;;;;;44.17;24.27;;;7.50;99.90;;;;;;5070803;28;19951;-54
2022/12/01 11:14:23;;;;;;;42.80;25.27;;;7.50;99.90;;;;;;5070826;28;20032;-53
2022/12/01 11:16:52;;;;;;;46.15;26.05;;;7.40;99.90;;;;;;5071845;28;20040;-54
2022/12/01 11:19:32;;;;;;;52.47;28.52;;;7.30;99.90;;;;;;5064463;28;21136;-54
2022/12/01 11:22:19;;;;;;;55.28;27.88;;;7.40;99.90;;;;;;5069584;28;20051;-54
2022/12/01 11:24:56;;;;;;;57.42;27.95;;;7.30;99.90;;;;;;5069031;28;20131;-52
2022/12/01 11:27:30;;;;;;;50.53;27.17;;;7.30;99.90;;;;;;5067806;28;20061;-53
2022/12/01 11:30:03;;;;;;;52.95;28.08;;;7.20;99.90;;;;;;5067638;28;20037;-54
2022/12/01 11:32:32;;;;;;;55.33;27.73;;;7.20;99.90;;;;;;5071142;28;20087;-54
2022/12/01 11:35:09;;;;;;;53.10;27.77;;;7.20;99.90;;;;;;5056206;28;20106;-54
2022/12/01 11:37:42;;;;;;;49.47;26.20;;;7.20;99.90;;;;;;5067808;28;20043;-54
2022/12/01 11:40:21;;;;;;;50.60;28.48;;;7.20;99.90;;;;;;5069474;28;20050;-54
2022/12/01 11:42:56;;;;;;;54.15;28.77;;;7.30;99.90;;;;;;5070445;28;20048;-55
2022/12/01 11:45:27;;;;;;;56.90;31.00;;;7.30;99.90;;;;;;5084122;27;20047;-55
2022/12/01 11:48:04;;;;;;;52.67;28.75;;;7.30;99.90;;;;;;5070211;28;20052;-55
2022/12/01 11:50:33;;;;;;;60.40;30.38;;;7.40;99.90;;;;;;5070131;28;20047;-53
2022/12/01 11:52:59;;;;;;;53.45;30.02;;;7.40;99.90;;;;;;5072193;28;20040;-54
2022/12/01 11:55:27;;;;;;;57.30;30.73;;;7.50;99.90;;;;;;5074005;28;20040;-55
2022/12/01 11:58:02;;;;;;;58.47;29.63;;;7.50;99.90;;;;;;5068927;28;20056;-55
2022/12/01 12:00:42;;;;;;;61.38;30.95;;;7.50;99.90;;;;;;5070292;28;20048;-55
2022/12/01 12:03:25;;;;;;;54.28;30.13;;;7.50;99.90;;;;;;5072391;28;20059;-55
2022/12/01 12:06:10;;;;;;;59.42;30.65;;;7.40;99.90;;;;;;5071692;28;20379;-55
2022/12/01 12:08:55;;;;;;;58.35;29.60;;;7.40;99.90;;;;;;5070175;28;20039;-51
2022/12/01 12:11:30;;;;;;;57.42;31.30;;;7.40;99.90;;;;;;5069930;28;20529;-55
2022/12/01 12:14:24;;;;;;;59.53;31.13;;;7.30;99.90;;;;;;5070612;28;20049;-53
2022/12/01 12:17:18;;;;;;;64.18;31.05;;;7.10;99.90;;;;;;5071974;28;20044;-55
2022/12/01 12:20:13;;;;;;;62.20;31.10;;;7.10;99.90;;;;;;5069753;28;20044;-55
2022/12/01 12:23:15;;;;;;;63.10;32.92;;;7.10;99.90;;;;;;5074587;28;20448;-53
2022/12/01 12:26:04;;;;;;;56.55;31.65;;;7.00;99.90;;;;;;5072082;28;20721;-55
2022/12/01 12:28:41;;;;;;;63.42;31.90;;;7.00;99.90;;;;;;5067850;28;20957;-54
2022/12/01 12:31:10;;;;;;;61.00;31.48;;;7.10;99.90;;;;;;5073554;28;20040;-54
2022/12/01 12:33:55;;;;;;;61.95;32.63;;;7.10;99.90;;;;;;5068777;28;20513;-53
2022/12/01 12:36:33;;;;;;;55.10;29.98;;;7.10;99.90;;;;;;5069757;28;20044;-54
2022/12/01 12:39:25;;;;;;;51.45;28.80;;;7.20;99.90;;;;;;5065362;28;20041;-55
2022/12/01 12:41:54;;;;;;;56.50;29.15;;;7.20;99.90;;;;;;5068329;28;20044;-52
2022/12/01 12:44:34;;;;;;;55.88;29.25;;;7.20;99.90;;;;;;5061853;28;20040;-55
2022/12/01 12:47:38;;;;;;;56.80;29.83;;;7.30;99.90;;;;;;5065207;28;20043;-55
2022/12/01 12:50:23;;;;;;;52.05;28.77;;;7.30;99.90;;;;;;5018534;28;20053;-54
2022/12/01 12:52:53;;;;;;;57.00;30.08;;;7.40;99.90;;;;;;5024631;28;20077;-53